createdAt,value
2023-01-29T00:01:54.079Z,1.80
2023-01-29T00:04:59.084Z,1.75
2023-01-29T00:08:01.943Z,1.60
2023-01-29T00:11:06.326Z,1.51
2023-01-29T00:14:08.691Z,1.46
2023-01-29T00:17:11.260Z,1.44
2023-01-29T00:20:13.915Z,1.44
2023-01-29T00:23:17.708Z,1.44
2023-01-29T00:26:19.877Z,1.40
2023-01-29T00:29:25.293Z,1.07
2023-01-29T00:32:27.505Z,1.14
2023-01-29T00:35:30.781Z,1.12
2023-01-29T00:38:35.379Z,1.01
2023-01-29T00:41:59.775Z,1.08
2023-01-29T00:45:04.195Z,1.06
2023-01-29T00:48:06.988Z,1.14
2023-01-29T00:51:09.395Z,0.91
2023-01-29T00:54:12.213Z,1.01
2023-01-29T00:57:15.030Z,1.09
2023-01-29T01:00:19.308Z,1.18
2023-01-29T01:03:21.719Z,1.15
2023-01-29T01:06:24.203Z,1.45
2023-01-29T01:09:45.106Z,1.63
2023-01-29T01:12:51.738Z,1.58
2023-01-29T01:15:56.088Z,1.50
2023-01-29T01:18:58.599Z,1.25
2023-01-29T01:22:01.239Z,1.37
2023-01-29T01:25:04.025Z,1.56
2023-01-29T01:28:06.379Z,1.48
2023-01-29T01:31:10.841Z,1.26
2023-01-29T01:34:13.104Z,1.03
2023-01-29T01:37:15.614Z,0.88
2023-01-29T01:40:22.738Z,0.90
2023-01-29T01:43:25.953Z,1.02
2023-01-29T01:46:36.838Z,1.08
2023-01-29T01:49:40.372Z,1.13
2023-01-29T01:52:52.049Z,1.05
2023-01-29T01:56:00.585Z,1.06
2023-01-29T01:59:02.982Z,1.03
2023-01-29T02:02:27.588Z,0.90
2023-01-29T02:05:55.072Z,0.89
2023-01-29T02:09:24.145Z,0.77
2023-01-29T02:12:31.102Z,0.63
2023-01-29T02:15:34.249Z,0.56
2023-01-29T02:18:39.461Z,0.45
2023-01-29T02:21:56.746Z,0.54
2023-01-29T02:25:28.387Z,0.27
2023-01-29T02:28:58.213Z,0.29
2023-01-29T02:32:03.906Z,0.21
2023-01-29T02:35:28.886Z,-0.06
2023-01-29T02:38:49.311Z,-0.05
2023-01-29T02:42:03.141Z,-0.17
2023-01-29T02:45:15.385Z,-0.27
2023-01-29T02:48:20.878Z,0.02
2023-01-29T02:51:35.181Z,0.10
2023-01-29T02:54:53.448Z,0.12
2023-01-29T02:58:03.843Z,0.16
2023-01-29T03:01:17.670Z,0.16
2023-01-29T03:04:31.311Z,0.28
2023-01-29T03:07:42.465Z,0.03
2023-01-29T03:10:57.612Z,0.11
2023-01-29T03:14:08.663Z,0.11
2023-01-29T03:17:11.705Z,0.10
2023-01-29T03:20:19.082Z,0.13
2023-01-29T03:23:27.251Z,0.26
2023-01-29T03:26:48.450Z,0.08
2023-01-29T03:30:14.314Z,0.06
2023-01-29T03:33:20.589Z,0.24
2023-01-29T03:36:37.982Z,0.20
2023-01-29T03:39:40.521Z,0.20
2023-01-29T03:43:19.485Z,0.45
2023-01-29T03:46:38.264Z,0.53
2023-01-29T03:49:49.234Z,0.32
2023-01-29T03:53:10.515Z,0.36
2023-01-29T03:56:28.999Z,0.27
2023-01-29T04:00:01.917Z,0.29
2023-01-29T04:03:35.137Z,0.46
2023-01-29T04:06:43.619Z,0.58
2023-01-29T04:09:50.498Z,0.75
2023-01-29T04:13:06.471Z,0.66
2023-01-29T04:16:15.456Z,1.00
2023-01-29T04:19:21.115Z,0.96
2023-01-29T04:22:36.253Z,0.82
2023-01-29T04:25:48.994Z,0.98
2023-01-29T04:29:17.098Z,1.13
2023-01-29T04:32:48.074Z,1.30
2023-01-29T04:36:00.108Z,1.19
2023-01-29T04:39:49.070Z,1.28
2023-01-29T04:43:07.343Z,1.23
2023-01-29T04:46:15.864Z,1.24
2023-01-29T04:49:27.528Z,1.30
2023-01-29T04:52:53.071Z,1.40
2023-01-29T04:56:12.439Z,1.29
2023-01-29T04:59:21.917Z,1.51
2023-01-29T05:02:28.991Z,1.65
2023-01-29T05:05:31.925Z,1.66
2023-01-29T05:08:37.319Z,1.67
2023-01-29T05:11:41.793Z,1.69
2023-01-29T05:14:47.794Z,1.75
2023-01-29T05:17:50.563Z,1.78
2023-01-29T05:20:56.395Z,1.75
2023-01-29T05:24:11.448Z,1.92
2023-01-29T05:27:39.455Z,1.79
2023-01-29T05:30:44.521Z,1.70
2023-01-29T05:33:46.752Z,1.67
2023-01-29T05:36:49.781Z,1.67
2023-01-29T05:39:54.239Z,1.76
2023-01-29T05:42:58.791Z,1.61
2023-01-29T05:46:03.733Z,1.45
2023-01-29T05:49:06.432Z,1.51
2023-01-29T05:52:10.445Z,1.36
2023-01-29T05:55:14.361Z,1.38
2023-01-29T05:58:16.556Z,1.39
2023-01-29T06:01:22.294Z,1.60
2023-01-29T06:04:24.734Z,1.53
2023-01-29T06:07:27.003Z,1.67
2023-01-29T06:10:29.681Z,1.76
2023-01-29T06:13:31.847Z,1.68
2023-01-29T06:16:34.440Z,1.64
2023-01-29T06:19:36.808Z,1.66
2023-01-29T06:22:39.352Z,1.85
2023-01-29T06:25:41.555Z,1.83
2023-01-29T06:28:48.153Z,1.79
2023-01-29T06:31:50.737Z,1.93
2023-01-29T06:34:55.533Z,2.04
2023-01-29T06:37:57.730Z,1.67
2023-01-29T06:41:09.366Z,1.70
2023-01-29T06:44:11.583Z,1.82
2023-01-29T06:47:14.071Z,1.95
2023-01-29T06:50:17.941Z,2.04
2023-01-29T06:53:21.860Z,1.98
2023-01-29T06:56:24.460Z,1.96
2023-01-29T06:59:27.068Z,2.04
2023-01-29T07:02:30.181Z,2.11
2023-01-29T07:05:34.257Z,1.99
2023-01-29T07:08:40.175Z,1.82
2023-01-29T07:11:42.862Z,1.70
2023-01-29T07:14:45.314Z,1.74
2023-01-29T07:18:07.640Z,1.76
2023-01-29T07:21:09.840Z,1.85
2023-01-29T07:24:12.643Z,1.89
2023-01-29T07:27:14.842Z,1.98
2023-01-29T07:30:18.216Z,1.82
2023-01-29T07:33:20.610Z,1.79
2023-01-29T07:36:24.156Z,2.20
2023-01-29T07:39:26.380Z,2.00
2023-01-29T07:42:29.434Z,2.04
2023-01-29T07:45:33.863Z,1.99
2023-01-29T07:48:36.591Z,2.06
2023-01-29T07:51:38.741Z,2.00
2023-01-29T07:54:41.389Z,1.95
2023-01-29T07:57:44.478Z,2.44
2023-01-29T08:00:46.984Z,2.44
2023-01-29T08:03:51.241Z,2.40
2023-01-29T08:06:53.709Z,2.84
2023-01-29T08:09:58.219Z,2.82
2023-01-29T08:13:03.020Z,2.67
2023-01-29T08:16:07.344Z,2.54
2023-01-29T08:19:09.511Z,2.47
2023-01-29T08:22:12.037Z,2.77
2023-01-29T08:25:15.198Z,2.81
2023-01-29T08:28:18.109Z,2.44
2023-01-29T08:31:23.512Z,2.80
2023-01-29T08:34:29.356Z,2.62
2023-01-29T08:37:31.546Z,2.77
2023-01-29T08:40:35.335Z,2.63
2023-01-29T08:43:38.863Z,2.62
2023-01-29T08:46:41.528Z,2.67
2023-01-29T08:49:45.846Z,3.08
2023-01-29T08:52:49.891Z,3.06
2023-01-29T08:55:52.830Z,2.82
2023-01-29T08:58:55.273Z,2.89
2023-01-29T09:02:00.297Z,2.91
2023-01-29T09:05:02.725Z,2.85
2023-01-29T09:08:06.372Z,2.84
2023-01-29T09:11:09.258Z,2.62
2023-01-29T09:14:24.789Z,2.61
2023-01-29T09:17:27.279Z,2.46
2023-01-29T09:20:29.475Z,2.43
2023-01-29T09:23:32.299Z,2.55
2023-01-29T09:26:34.540Z,2.47
2023-01-29T09:29:37.455Z,2.42
2023-01-29T09:32:55.288Z,2.48
2023-01-29T09:35:57.970Z,2.52
2023-01-29T09:39:00.365Z,2.83
2023-01-29T09:42:23.196Z,2.62
2023-01-29T09:45:28.265Z,2.51
2023-01-29T09:48:34.812Z,2.65
2023-01-29T09:52:10.523Z,2.81
2023-01-29T09:55:24.938Z,2.88
2023-01-29T09:58:39.041Z,2.82
2023-01-29T10:01:54.756Z,2.98
2023-01-29T10:05:28.491Z,2.85
2023-01-29T10:08:33.717Z,2.68
2023-01-29T10:11:57.775Z,2.74
2023-01-29T10:15:19.629Z,2.98
2023-01-29T10:18:57.727Z,3.06
2023-01-29T10:22:25.353Z,2.94
2023-01-29T10:25:28.913Z,2.79
2023-01-29T10:28:51.581Z,2.97
2023-01-29T10:32:07.284Z,3.01
2023-01-29T10:35:30.808Z,3.05
2023-01-29T10:38:47.732Z,2.60
2023-01-29T10:42:29.045Z,2.48
2023-01-29T10:46:06.451Z,2.67
2023-01-29T10:49:14.429Z,2.56
2023-01-29T10:52:41.266Z,2.60
2023-01-29T10:55:51.194Z,2.43
2023-01-29T10:59:01.627Z,2.37
2023-01-29T11:02:16.493Z,2.51
2023-01-29T11:05:28.246Z,2.46
2023-01-29T11:08:54.740Z,2.66
2023-01-29T11:12:10.089Z,2.60
2023-01-29T11:15:18.725Z,2.37
2023-01-29T11:18:21.200Z,2.39
2023-01-29T11:21:25.339Z,2.49
2023-01-29T11:24:28.776Z,2.39
2023-01-29T11:27:37.895Z,2.14
2023-01-29T11:30:41.842Z,2.07
2023-01-29T11:33:45.918Z,2.01
2023-01-29T11:37:01.403Z,2.23
2023-01-29T11:40:19.143Z,1.96
2023-01-29T11:43:34.290Z,1.96
2023-01-29T11:46:39.843Z,2.17
2023-01-29T11:49:51.346Z,2.48
2023-01-29T11:52:54.519Z,2.51
2023-01-29T11:55:57.225Z,2.58
2023-01-29T11:59:04.391Z,2.55
2023-01-29T12:02:28.038Z,2.87
2023-01-29T12:05:30.715Z,3.28
2023-01-29T12:08:39.937Z,3.09
2023-01-29T12:11:42.440Z,3.52
2023-01-29T12:14:45.885Z,3.38
2023-01-29T12:18:23.763Z,3.58
2023-01-29T12:21:46.575Z,3.52
2023-01-29T12:24:54.763Z,3.57
2023-01-29T12:28:20.572Z,3.65
2023-01-29T12:31:39.156Z,3.13
2023-01-29T12:34:55.360Z,2.78
2023-01-29T12:38:16.325Z,2.44
2023-01-29T12:41:30.877Z,1.99
2023-01-29T12:44:42.389Z,2.07
2023-01-29T12:47:49.277Z,2.10
2023-01-29T12:50:53.893Z,1.76
2023-01-29T12:54:21.618Z,1.73
2023-01-29T12:57:49.844Z,1.70
2023-01-29T13:00:55.301Z,1.87
2023-01-29T13:04:14.862Z,1.60
2023-01-29T13:07:31.281Z,1.47
2023-01-29T13:10:41.212Z,1.58
2023-01-29T13:13:54.631Z,1.43
2023-01-29T13:17:20.177Z,1.37
2023-01-29T13:20:30.567Z,1.23
2023-01-29T13:23:47.238Z,1.18
2023-01-29T13:26:49.953Z,1.24
2023-01-29T13:29:54.534Z,1.19
2023-01-29T13:33:09.141Z,1.12
2023-01-29T13:36:21.987Z,1.16
2023-01-29T13:39:39.629Z,1.11
2023-01-29T13:42:49.939Z,1.23
2023-01-29T13:45:54.684Z,1.25
2023-01-29T13:49:00.840Z,1.32
2023-01-29T13:52:31.835Z,1.33
2023-01-29T13:55:40.320Z,1.56
2023-01-29T13:59:05.235Z,1.70
2023-01-29T14:02:24.551Z,1.73
2023-01-29T14:05:32.486Z,1.84
2023-01-29T14:08:34.805Z,1.72
2023-01-29T14:11:37.462Z,1.57
2023-01-29T14:14:48.416Z,1.58
2023-01-29T14:18:02.853Z,1.69
2023-01-29T14:21:19.238Z,1.54
2023-01-29T14:24:29.202Z,1.52
2023-01-29T14:27:32.431Z,1.36
2023-01-29T14:30:36.604Z,1.42
2023-01-29T14:33:42.363Z,1.59
2023-01-29T14:36:47.488Z,1.39
2023-01-29T14:39:51.964Z,1.34
2023-01-29T14:43:00.461Z,1.43
2023-01-29T14:46:36.216Z,1.37
2023-01-29T14:50:00.697Z,1.43
2023-01-29T14:53:30.980Z,1.30
2023-01-29T14:56:42.947Z,1.29
2023-01-29T15:00:17.358Z,1.22
2023-01-29T15:03:29.468Z,1.10
2023-01-29T15:06:53.013Z,1.27
2023-01-29T15:10:21.959Z,1.25
2023-01-29T15:13:35.892Z,1.28
2023-01-29T15:17:06.697Z,1.08
2023-01-29T15:20:33.608Z,0.85
2023-01-29T15:23:36.348Z,0.82
2023-01-29T15:26:38.783Z,0.71
2023-01-29T15:29:43.315Z,0.78
2023-01-29T15:32:47.937Z,0.68
2023-01-29T15:36:07.331Z,0.67
2023-01-29T15:39:13.330Z,0.57
2023-01-29T15:42:21.733Z,0.61
2023-01-29T15:45:29.281Z,0.57
2023-01-29T15:48:36.495Z,0.40
2023-01-29T15:51:39.131Z,0.32
2023-01-29T15:54:41.758Z,0.23
2023-01-29T15:57:45.360Z,0.17
2023-01-29T16:00:56.788Z,0.20
2023-01-29T16:04:06.540Z,0.03
2023-01-29T16:07:08.723Z,-0.15
2023-01-29T16:10:20.831Z,-0.10
2023-01-29T16:13:26.256Z,-0.18
2023-01-29T16:16:29.092Z,-0.16
2023-01-29T16:19:31.362Z,-0.16
2023-01-29T16:22:37.058Z,0.01
2023-01-29T16:25:39.525Z,-0.06
2023-01-29T16:28:43.751Z,-0.24
2023-01-29T16:31:48.435Z,-0.52
2023-01-29T16:34:58.100Z,-0.39
2023-01-29T16:38:03.445Z,-0.30
2023-01-29T16:41:20.937Z,-0.36
2023-01-29T16:44:37.252Z,-0.14
2023-01-29T16:47:43.610Z,-0.32
2023-01-29T16:50:54.696Z,-0.27
2023-01-29T16:54:02.126Z,-0.30
2023-01-29T16:57:06.716Z,-0.38
2023-01-29T17:00:21.853Z,-0.48
2023-01-29T17:03:27.215Z,-0.40
2023-01-29T17:06:32.400Z,-0.35
2023-01-29T17:09:37.679Z,-0.38
2023-01-29T17:12:40.163Z,-0.37
2023-01-29T17:15:43.066Z,-0.28
2023-01-29T17:18:45.562Z,-0.25
2023-01-29T17:21:47.824Z,-0.25
2023-01-29T17:24:51.560Z,-0.61
2023-01-29T17:27:55.155Z,-0.54
2023-01-29T17:31:06.762Z,-0.46
2023-01-29T17:34:14.335Z,-0.44
2023-01-29T17:37:17.248Z,-0.51
2023-01-29T17:40:55.446Z,-0.49
2023-01-29T17:43:58.324Z,-0.76
2023-01-29T17:47:00.854Z,-0.52
2023-01-29T17:50:06.925Z,-0.63
2023-01-29T17:53:09.651Z,-0.65
2023-01-29T17:56:21.376Z,-0.59
2023-01-29T17:59:27.621Z,-0.76
2023-01-29T18:02:30.242Z,-1.07
2023-01-29T18:05:34.927Z,-0.68
2023-01-29T18:08:38.686Z,-0.67
2023-01-29T18:11:42.886Z,-0.86
2023-01-29T18:14:45.081Z,-0.74
2023-01-29T18:17:48.440Z,-0.85
2023-01-29T18:20:51.181Z,-0.83
2023-01-29T18:23:53.676Z,-0.82
2023-01-29T18:26:55.953Z,-0.95
2023-01-29T18:29:58.378Z,-0.89
2023-01-29T18:33:00.629Z,-0.97
2023-01-29T18:36:05.154Z,-0.97
2023-01-29T18:39:07.490Z,-0.99
2023-01-29T18:42:10.183Z,-0.96
2023-01-29T18:45:13.244Z,-1.01
2023-01-29T18:48:15.767Z,-0.90
2023-01-29T18:51:17.999Z,-1.04
2023-01-29T18:54:21.445Z,-1.07
2023-01-29T18:58:27.755Z,-1.17
2023-01-29T19:00:46.076Z,-1.20
2023-01-29T19:03:48.388Z,-1.30
2023-01-29T19:06:51.157Z,-1.39
2023-01-29T19:09:53.798Z,-1.31
2023-01-29T19:12:58.741Z,-1.35
2023-01-29T19:16:01.344Z,-1.40
2023-01-29T19:19:03.936Z,-1.40
2023-01-29T19:22:06.130Z,-1.44
2023-01-29T19:25:09.294Z,-1.40
2023-01-29T19:28:11.742Z,-1.37
2023-01-29T19:31:14.383Z,-1.37
2023-01-29T19:34:20.132Z,-1.45
2023-01-29T19:37:22.706Z,-1.46
2023-01-29T19:40:26.477Z,-1.43
2023-01-29T19:43:34.668Z,-1.36
2023-01-29T19:46:37.134Z,-1.50
2023-01-29T19:49:40.889Z,-1.49
2023-01-29T19:52:51.662Z,-1.40
2023-01-29T19:56:07.872Z,-1.53
2023-01-29T19:59:11.396Z,-1.90
2023-01-29T20:02:14.324Z,-1.80
2023-01-29T20:05:18.418Z,-1.77
2023-01-29T20:08:23.510Z,-1.73
2023-01-29T20:11:26.061Z,-1.62
2023-01-29T20:14:28.560Z,-1.59
2023-01-29T20:17:33.403Z,-1.60
2023-01-29T20:20:39.441Z,-1.74
2023-01-29T20:23:43.755Z,-1.77
2023-01-29T20:26:47.313Z,-1.70
2023-01-29T20:29:52.485Z,-1.63
2023-01-29T20:32:54.722Z,-1.48
2023-01-29T20:35:59.350Z,-1.50
2023-01-29T20:39:01.862Z,-1.54
2023-01-29T20:42:04.414Z,-1.55
2023-01-29T20:45:06.965Z,-1.44
2023-01-29T20:48:09.449Z,-1.43
2023-01-29T20:51:17.021Z,-1.27
2023-01-29T20:54:19.841Z,-1.38
2023-01-29T20:57:24.353Z,-1.46
2023-01-29T21:00:27.954Z,-1.41
2023-01-29T21:03:30.184Z,-1.42
2023-01-29T21:06:32.977Z,-1.49
2023-01-29T21:09:35.368Z,-1.54
2023-01-29T21:12:37.907Z,-1.36
2023-01-29T21:15:43.782Z,-1.49
2023-01-29T21:18:47.380Z,-1.62
2023-01-29T21:21:49.518Z,-1.57
2023-01-29T21:24:51.960Z,-1.71
2023-01-29T21:27:54.140Z,-1.66
2023-01-29T21:31:11.267Z,-1.57
2023-01-29T21:34:14.411Z,-1.46
2023-01-29T21:37:16.915Z,-1.53
2023-01-29T21:40:22.632Z,-1.62
2023-01-29T21:43:27.140Z,-1.73
2023-01-29T21:46:30.311Z,-1.71
2023-01-29T21:49:32.773Z,-1.60
2023-01-29T21:52:34.895Z,-1.74
2023-01-29T21:55:38.623Z,-1.72
2023-01-29T21:58:41.215Z,-1.68
2023-01-29T22:01:43.763Z,-1.65
2023-01-29T22:04:46.277Z,-1.60
2023-01-29T22:07:49.674Z,-1.58
2023-01-29T22:10:52.413Z,-1.88
2023-01-29T22:13:54.947Z,-1.89
2023-01-29T22:16:59.564Z,-2.03
2023-01-29T22:20:01.999Z,-1.99
2023-01-29T22:23:04.795Z,-1.93
2023-01-29T22:26:09.881Z,-1.92
2023-01-29T22:29:13.536Z,-1.95
2023-01-29T22:32:16.430Z,-1.97
2023-01-29T22:35:20.466Z,-2.02
2023-01-29T22:38:23.857Z,-1.83
2023-01-29T22:41:26.369Z,-1.81
2023-01-29T22:44:28.775Z,-1.85
2023-01-29T22:47:32.832Z,-1.92
2023-01-29T22:50:34.982Z,-1.60
2023-01-29T22:53:51.740Z,-1.86
2023-01-29T22:56:53.839Z,-1.82
2023-01-29T22:59:58.787Z,-1.72
2023-01-29T23:03:03.479Z,-1.79
2023-01-29T23:06:08.070Z,-1.87
2023-01-29T23:09:10.246Z,-1.94
2023-01-29T23:12:14.931Z,-1.86
2023-01-29T23:15:17.104Z,-2.08
2023-01-29T23:18:19.938Z,-1.88
2023-01-29T23:21:24.875Z,-1.71
2023-01-29T23:24:27.373Z,-1.68
2023-01-29T23:27:29.690Z,-1.88
2023-01-29T23:30:34.303Z,-2.11
2023-01-29T23:33:37.059Z,-2.03
2023-01-29T23:36:39.632Z,-2.09
2023-01-29T23:39:41.967Z,-2.06
2023-01-29T23:42:44.540Z,-2.00
2023-01-29T23:45:46.725Z,-2.19
2023-01-29T23:48:49.287Z,-2.08
2023-01-29T23:51:55.319Z,-2.16
2023-01-29T23:54:57.778Z,-2.21
2023-01-29T23:57:59.995Z,-2.14
